Portada
METAR-TAF:

METAR-TAF

Aeroports :

Taixkent, Uzbekistan

latitud: 41-16N, longitud: 069-16E, altitud: 489 m

Observació

L'informe es va fer fa 42 minuts, a les 20:30 UTC
Vent 2 kt del Est/Sud-Est
Temperatura 24°C
Humitat 50%
Pressió 1008 hPa
Visibilitat 10 km o més
sense núvols per sota de 1500 mi sense presència de cumulonimbus.

METAR: UTTT 142030Z 11002KT CAVOK 24/13 Q1008 R08R/CLRD70 NOSIG

Hora: 02:12 (21:12 UTC)

Pronòstic

L'informe es va fer fa 10 hores i 12 minuts, a les 11:00 UTC
Pronòstic vàlid del 14 a les 18 UTC al 15 a les 18 UTC
Vent 12 kt del Est/Nord-Est
Visibilitat: 7000 m

TAF: UTTT 141100Z 1418/1518 07012KT 7000 NSC TX37/1510Z

Observacions i pronòstics meteorològics de més de 4000 aeroports (METAR i TAF).

Les estacions disponibles són els punts grocs i vermells al mapa.

Posi el ratolí al punt desitjat per veure el nom de l'estació.

Feu clic per veure les observacions i els pronòstics meteorològics.

Per canviar el mapa: feu clic els botons verds amb una creu de color negre per apropar; al botó verd amb un guió per allunyar la imatge; o en les fletxes verdes per a mapes adjacents.


METAR-TAF: